createdAt,value
2018-08-04T00:01:43.472Z,92.70
2018-08-04T00:04:11.956Z,92.80
2018-08-04T00:06:40.445Z,92.90
2018-08-04T00:09:11.280Z,92.90
2018-08-04T00:11:40.036Z,92.80
2018-08-04T00:14:08.591Z,92.70
2018-08-04T00:16:37.268Z,92.70
2018-08-04T00:19:06.293Z,92.70
2018-08-04T00:21:34.868Z,92.80
2018-08-04T00:24:03.362Z,92.80
2018-08-04T00:26:32.867Z,92.80
2018-08-04T00:29:02.492Z,92.90
2018-08-04T00:31:32.382Z,93.00
2018-08-04T00:34:00.804Z,93.10
2018-08-04T00:36:29.635Z,93.20
2018-08-04T00:38:58.183Z,93.20
2018-08-04T00:41:26.820Z,93.30
2018-08-04T00:43:55.255Z,93.40
2018-08-04T00:46:23.895Z,93.90
2018-08-04T00:48:52.608Z,93.60
2018-08-04T00:51:21.176Z,93.70
2018-08-04T00:53:49.523Z,93.90
2018-08-04T00:56:18.200Z,93.90
2018-08-04T00:58:46.633Z,93.90
2018-08-04T01:01:15.640Z,94.00
2018-08-04T01:03:44.017Z,94.10
2018-08-04T01:06:12.332Z,94.20
2018-08-04T01:08:40.723Z,94.20
2018-08-04T01:13:37.528Z,94.40
2018-08-04T01:16:06.132Z,94.50
2018-08-04T01:18:34.720Z,94.50
2018-08-04T01:21:03.019Z,94.90
2018-08-04T01:23:31.596Z,94.60
2018-08-04T01:26:00.041Z,94.60
2018-08-04T01:28:28.872Z,94.70
2018-08-04T01:30:57.260Z,94.80
2018-08-04T01:33:25.700Z,94.90
2018-08-04T01:35:54.008Z,94.90
2018-08-04T01:38:22.619Z,94.90
2018-08-04T01:40:51.232Z,95.00
2018-08-04T01:43:19.616Z,94.90
2018-08-04T01:45:48.040Z,95.10
2018-08-04T01:48:16.682Z,95.10
2018-08-04T01:50:45.136Z,95.10
2018-08-04T01:53:13.759Z,95.20
2018-08-04T01:55:42.150Z,95.20
2018-08-04T01:58:10.704Z,95.20
2018-08-04T02:00:39.062Z,95.30
2018-08-04T02:03:07.668Z,95.40
2018-08-04T02:05:42.679Z,95.50
2018-08-04T02:08:10.970Z,95.50
2018-08-04T02:10:39.524Z,95.60
2018-08-04T02:13:08.072Z,95.60
2018-08-04T02:15:36.588Z,95.70
2018-08-04T02:18:05.240Z,95.80
2018-08-04T02:20:33.886Z,95.80
2018-08-04T02:23:02.405Z,95.80
2018-08-04T02:25:30.848Z,95.90
2018-08-04T02:27:59.272Z,95.90
2018-08-04T02:30:27.820Z,95.90
2018-08-04T02:32:56.263Z,96.20
2018-08-04T02:35:24.680Z,96.00
2018-08-04T02:37:53.249Z,96.10
2018-08-04T02:40:21.788Z,96.10
2018-08-04T02:42:50.260Z,96.10
2018-08-04T02:45:18.788Z,96.20
2018-08-04T02:47:47.819Z,96.20
2018-08-04T02:50:16.294Z,96.20
2018-08-04T02:52:45.052Z,96.30
2018-08-04T02:55:13.910Z,96.30
2018-08-04T02:57:42.429Z,96.40
2018-08-04T03:00:10.820Z,96.40
2018-08-04T03:05:08.480Z,96.50
2018-08-04T03:07:37.053Z,96.60
2018-08-04T03:10:06.297Z,96.70
2018-08-04T03:12:34.825Z,96.80
2018-08-04T03:15:03.355Z,96.80
2018-08-04T03:17:31.693Z,96.80
2018-08-04T03:20:00.296Z,96.90
2018-08-04T03:22:28.632Z,96.90
2018-08-04T03:24:57.079Z,96.90
2018-08-04T03:27:25.319Z,97.00
2018-08-04T03:29:53.540Z,97.00
2018-08-04T03:32:21.944Z,97.00
2018-08-04T03:34:50.368Z,97.00
2018-08-04T03:37:18.680Z,97.10
2018-08-04T03:39:47.072Z,97.10
2018-08-04T03:42:15.392Z,97.20
2018-08-04T03:44:43.652Z,97.20
2018-08-04T03:47:11.916Z,97.20
2018-08-04T03:49:40.207Z,97.20
2018-08-04T03:52:08.946Z,97.30
2018-08-04T03:54:37.257Z,97.30
2018-08-04T03:57:06.564Z,97.30
2018-08-04T03:59:34.815Z,97.30
2018-08-04T04:02:03.132Z,97.30
2018-08-04T04:04:31.560Z,97.30
2018-08-04T04:06:59.806Z,97.30
2018-08-04T04:09:28.233Z,97.40
2018-08-04T04:11:56.476Z,97.40
2018-08-04T04:14:24.788Z,97.30
2018-08-04T04:16:53.253Z,97.20
2018-08-04T04:19:21.532Z,97.20
2018-08-04T04:21:50.666Z,97.10
2018-08-04T04:24:18.916Z,97.20
2018-08-04T04:26:47.208Z,97.30
2018-08-04T04:29:15.483Z,97.30
2018-08-04T04:31:43.722Z,97.30
2018-08-04T04:34:12.014Z,97.30
2018-08-04T04:36:40.283Z,97.30
2018-08-04T04:39:09.932Z,97.30
2018-08-04T04:41:38.628Z,97.20
2018-08-04T04:44:06.974Z,97.10
2018-08-04T04:46:38.685Z,97.10
2018-08-04T04:49:08.936Z,97.00
2018-08-04T04:51:37.256Z,97.00
2018-08-04T04:54:05.844Z,96.90
2018-08-04T04:56:34.552Z,96.90
2018-08-04T04:59:03.028Z,96.90
2018-08-04T05:01:31.346Z,96.90
2018-08-04T05:03:59.648Z,96.80
2018-08-04T05:06:28.040Z,96.70
2018-08-04T05:08:56.400Z,96.70
2018-08-04T05:11:24.708Z,96.50
2018-08-04T05:13:52.972Z,96.40
2018-08-04T05:16:21.332Z,96.40
2018-08-04T05:18:49.539Z,96.30
2018-08-04T05:21:17.881Z,96.00
2018-08-04T05:23:46.266Z,95.70
2018-08-04T05:26:14.720Z,95.40
2018-08-04T05:28:42.958Z,95.20
2018-08-04T05:31:11.268Z,95.00
2018-08-04T05:33:39.534Z,95.00
2018-08-04T05:36:07.816Z,95.00
2018-08-04T05:38:36.232Z,95.00
2018-08-04T05:41:04.769Z,95.10
2018-08-04T05:43:33.122Z,95.10
2018-08-04T05:46:01.313Z,95.20
2018-08-04T05:48:29.619Z,95.20
2018-08-04T05:50:58.448Z,95.10
2018-08-04T05:53:26.744Z,94.90
2018-08-04T05:55:55.016Z,94.90
2018-08-04T05:58:23.380Z,94.90
2018-08-04T06:00:51.752Z,94.90
2018-08-04T06:03:20.023Z,94.90
2018-08-04T06:05:48.372Z,94.90
2018-08-04T06:08:16.771Z,94.70
2018-08-04T06:10:45.078Z,94.40
2018-08-04T06:13:13.336Z,94.00
2018-08-04T06:15:41.599Z,93.50
2018-08-04T06:18:09.947Z,93.10
2018-08-04T06:20:38.156Z,92.60
2018-08-04T06:23:06.744Z,92.20
2018-08-04T06:25:34.952Z,92.00
2018-08-04T06:28:03.187Z,91.30
2018-08-04T06:30:31.479Z,90.90
2018-08-04T06:32:59.773Z,90.50
2018-08-04T06:35:28.016Z,90.10
2018-08-04T06:37:56.464Z,89.50
2018-08-04T06:40:25.001Z,88.90
2018-08-04T06:42:53.456Z,88.70
2018-08-04T06:45:21.900Z,88.80
2018-08-04T06:47:50.268Z,89.00
2018-08-04T06:50:18.765Z,89.20
2018-08-04T06:52:47.084Z,88.60
2018-08-04T06:55:15.342Z,88.40
2018-08-04T06:57:43.608Z,88.30
2018-08-04T07:00:12.010Z,87.70
2018-08-04T07:02:40.342Z,87.10
2018-08-04T07:05:08.617Z,87.10
2018-08-04T07:07:36.807Z,86.90
2018-08-04T07:10:05.225Z,85.90
2018-08-04T07:12:33.748Z,85.00
2018-08-04T07:15:02.164Z,83.70
2018-08-04T07:17:30.468Z,83.80
2018-08-04T07:19:58.751Z,83.10
2018-08-04T07:22:26.968Z,82.50
2018-08-04T07:24:55.243Z,81.50
2018-08-04T07:27:23.479Z,80.90
2018-08-04T07:29:51.809Z,80.30
2018-08-04T07:32:20.113Z,79.50
2018-08-04T07:34:48.380Z,79.10
2018-08-04T07:37:16.627Z,78.50
2018-08-04T07:39:44.852Z,78.20
2018-08-04T07:42:13.074Z,78.00
2018-08-04T07:44:41.263Z,76.90
2018-08-04T07:47:09.616Z,76.00
2018-08-04T07:49:37.824Z,75.60
2018-08-04T07:52:06.582Z,75.40
2018-08-04T07:54:34.832Z,74.40
2018-08-04T07:57:03.048Z,73.50
2018-08-04T07:59:31.474Z,72.90
2018-08-04T08:01:59.843Z,73.10
2018-08-04T08:04:28.161Z,72.00
2018-08-04T08:06:56.378Z,71.20
2018-08-04T08:09:24.626Z,70.60
2018-08-04T08:11:52.904Z,70.30
2018-08-04T08:14:21.136Z,69.50
2018-08-04T08:16:49.458Z,69.40
2018-08-04T08:19:17.694Z,68.80
2018-08-04T08:21:46.044Z,68.40
2018-08-04T08:24:14.296Z,66.70
2018-08-04T08:26:42.536Z,66.20
2018-08-04T08:29:11.160Z,65.70
2018-08-04T08:31:39.465Z,65.00
2018-08-04T08:34:07.678Z,64.40
2018-08-04T08:36:35.886Z,64.20
2018-08-04T08:39:05.557Z,63.90
2018-08-04T08:44:01.782Z,63.00
2018-08-04T08:46:30.041Z,62.50
2018-08-04T08:48:58.275Z,62.20
2018-08-04T08:51:26.964Z,61.70
2018-08-04T08:53:55.279Z,61.20
2018-08-04T08:56:23.539Z,60.80
2018-08-04T08:58:51.933Z,60.40
2018-08-04T09:01:20.214Z,60.20
2018-08-04T09:03:48.505Z,59.90
2018-08-04T09:06:16.826Z,59.80
2018-08-04T09:08:45.206Z,59.10
2018-08-04T09:13:41.960Z,58.20
2018-08-04T09:16:10.464Z,57.90
2018-08-04T09:18:38.719Z,57.60
2018-08-04T09:21:06.973Z,57.50
2018-08-04T09:23:35.245Z,57.10
2018-08-04T09:26:03.551Z,56.60
2018-08-04T09:28:31.848Z,56.20
2018-08-04T09:31:00.174Z,56.00
2018-08-04T09:33:28.559Z,56.10
2018-08-04T09:35:57.361Z,55.80
2018-08-04T09:38:26.292Z,55.60
2018-08-04T09:40:54.563Z,55.70
2018-08-04T09:43:22.772Z,55.10
2018-08-04T09:45:51.012Z,55.10
2018-08-04T09:48:19.706Z,54.70
2018-08-04T09:50:47.923Z,54.10
2018-08-04T09:53:16.143Z,53.80
2018-08-04T09:55:44.376Z,53.90
2018-08-04T09:58:12.616Z,53.70
2018-08-04T10:01:44.574Z,53.00
2018-08-04T10:04:12.813Z,52.70
2018-08-04T10:06:42.801Z,52.30
2018-08-04T10:09:11.709Z,52.10
2018-08-04T10:11:39.952Z,52.30
2018-08-04T10:14:08.287Z,52.60
2018-08-04T10:16:36.523Z,51.70
2018-08-04T10:21:32.832Z,50.90
2018-08-04T10:24:01.063Z,50.30
2018-08-04T10:26:29.331Z,50.10
2018-08-04T10:28:57.558Z,49.80
2018-08-04T10:31:25.817Z,49.20
2018-08-04T10:33:54.127Z,48.50
2018-08-04T10:36:22.383Z,48.40
2018-08-04T10:38:50.636Z,47.60
2018-08-04T10:41:18.948Z,48.20
2018-08-04T10:43:47.215Z,47.50
2018-08-04T10:46:15.513Z,46.10
2018-08-04T10:48:43.766Z,44.90
2018-08-04T10:51:11.981Z,44.90
2018-08-04T10:53:40.207Z,44.60
2018-08-04T10:56:08.479Z,44.00
2018-08-04T10:58:36.701Z,43.10
2018-08-04T11:01:05.943Z,41.40
2018-08-04T11:03:34.171Z,41.40
2018-08-04T11:06:02.424Z,41.30
2018-08-04T11:08:30.695Z,40.50
2018-08-04T11:10:58.938Z,40.20
2018-08-04T11:13:27.185Z,39.50
2018-08-04T11:15:55.518Z,39.30
2018-08-04T11:18:23.736Z,39.50
2018-08-04T11:20:52.231Z,38.90
2018-08-04T11:23:20.518Z,37.80
2018-08-04T11:25:48.744Z,37.90
2018-08-04T11:28:17.339Z,37.40
2018-08-04T11:30:45.608Z,37.10
2018-08-04T11:33:13.766Z,37.60
2018-08-04T11:35:42.021Z,37.20
2018-08-04T11:38:10.320Z,37.30
2018-08-04T11:40:39.974Z,36.60
2018-08-04T11:43:08.584Z,36.30
2018-08-04T11:45:36.931Z,36.40
2018-08-04T11:48:05.578Z,35.90
2018-08-04T11:50:33.828Z,35.90
2018-08-04T11:53:02.380Z,36.20
2018-08-04T11:55:31.345Z,36.30
2018-08-04T11:57:59.702Z,37.10
2018-08-04T12:00:27.989Z,36.50
2018-08-04T12:02:56.253Z,36.30
2018-08-04T12:05:24.524Z,35.60
2018-08-04T12:07:52.739Z,35.80
2018-08-04T12:10:21.256Z,36.20
2018-08-04T12:12:49.692Z,35.90
2018-08-04T12:15:18.010Z,35.40
2018-08-04T12:17:46.273Z,35.80
2018-08-04T12:20:14.828Z,35.00
2018-08-04T12:22:43.052Z,34.70
2018-08-04T12:25:11.269Z,34.50
2018-08-04T12:27:39.528Z,34.90
2018-08-04T12:30:08.657Z,34.80
2018-08-04T12:32:37.150Z,35.20
2018-08-04T12:35:06.123Z,35.40
2018-08-04T12:37:34.730Z,35.00
2018-08-04T12:40:03.261Z,34.90
2018-08-04T12:42:31.547Z,34.40
2018-08-04T12:44:59.786Z,34.30
2018-08-04T12:47:28.029Z,34.60
2018-08-04T12:49:56.244Z,34.20
2018-08-04T12:52:24.543Z,34.10
2018-08-04T12:54:52.820Z,33.60
2018-08-04T12:57:21.499Z,33.60
2018-08-04T12:59:50.557Z,33.10
2018-08-04T13:02:18.748Z,33.90
2018-08-04T13:04:47.208Z,33.70
2018-08-04T13:07:15.401Z,33.70
2018-08-04T13:09:43.672Z,33.50
2018-08-04T13:12:11.895Z,33.30
2018-08-04T13:14:40.163Z,32.80
2018-08-04T13:17:08.408Z,32.90
2018-08-04T13:19:36.686Z,32.50
2018-08-04T13:22:04.977Z,32.20
2018-08-04T13:24:33.160Z,31.60
2018-08-04T13:27:01.436Z,31.30
2018-08-04T13:29:29.657Z,31.40
2018-08-04T13:31:57.980Z,30.90
2018-08-04T13:34:26.224Z,30.60
2018-08-04T13:36:54.498Z,30.50
2018-08-04T13:39:22.813Z,30.10
2018-08-04T13:41:51.066Z,29.90
2018-08-04T13:44:19.293Z,29.90
2018-08-04T13:46:47.604Z,30.50
2018-08-04T13:51:43.805Z,32.80
2018-08-04T13:54:11.999Z,33.00
2018-08-04T13:56:40.228Z,33.40
2018-08-04T13:59:08.475Z,33.90
2018-08-04T14:01:36.695Z,33.60
2018-08-04T14:04:05.066Z,33.60
2018-08-04T14:06:33.288Z,34.30
2018-08-04T14:09:01.933Z,35.30
2018-08-04T14:11:30.156Z,35.30
2018-08-04T14:13:58.376Z,35.40
2018-08-04T14:16:26.648Z,34.90
2018-08-04T14:18:54.879Z,34.20
2018-08-04T14:21:23.075Z,34.10
2018-08-04T14:23:52.048Z,34.20
2018-08-04T14:26:20.256Z,34.00
2018-08-04T14:28:49.105Z,33.80
2018-08-04T14:31:17.316Z,33.70
2018-08-04T14:33:45.569Z,33.70
2018-08-04T14:36:13.782Z,33.50
2018-08-04T14:38:42.904Z,33.30
2018-08-04T14:41:11.152Z,33.00
2018-08-04T14:43:39.584Z,32.70
2018-08-04T14:46:08.378Z,32.30
2018-08-04T14:48:36.722Z,32.10
2018-08-04T14:51:05.000Z,31.90
2018-08-04T14:53:33.223Z,31.20
2018-08-04T14:56:01.560Z,30.80
2018-08-04T14:58:29.793Z,30.90
2018-08-04T15:00:58.226Z,31.00
2018-08-04T15:03:26.441Z,30.00
2018-08-04T15:05:54.661Z,29.70
2018-08-04T15:08:22.916Z,29.70
2018-08-04T15:10:51.232Z,29.10
2018-08-04T15:13:19.480Z,29.50
2018-08-04T15:15:48.137Z,29.80
2018-08-04T15:18:16.439Z,29.10
2018-08-04T15:20:44.744Z,28.80
2018-08-04T15:23:13.248Z,29.00
2018-08-04T15:25:41.505Z,28.80
2018-08-04T15:28:09.746Z,28.90
2018-08-04T15:30:37.967Z,29.30
2018-08-04T15:35:34.167Z,29.20
2018-08-04T15:38:02.377Z,29.20
2018-08-04T15:40:30.619Z,29.20
2018-08-04T15:42:59.089Z,29.20
2018-08-04T15:45:27.535Z,29.10
2018-08-04T15:47:55.820Z,29.10
2018-08-04T15:50:24.059Z,29.10
2018-08-04T15:52:52.352Z,28.90
2018-08-04T15:55:20.559Z,28.90
2018-08-04T15:57:48.850Z,29.20
2018-08-04T16:00:17.220Z,29.50
2018-08-04T16:02:45.473Z,29.90
2018-08-04T16:05:13.781Z,30.10
2018-08-04T16:07:42.050Z,30.10
2018-08-04T16:10:10.415Z,30.00
2018-08-04T16:12:38.720Z,30.00
2018-08-04T16:15:07.009Z,30.20
2018-08-04T16:17:35.444Z,30.40
2018-08-04T16:20:05.168Z,30.30
2018-08-04T16:22:33.418Z,30.00
2018-08-04T16:25:01.696Z,30.10
2018-08-04T16:27:29.903Z,30.20
2018-08-04T16:29:58.111Z,30.30
2018-08-04T16:32:26.440Z,30.40
2018-08-04T16:34:55.605Z,30.60
2018-08-04T16:37:23.907Z,31.00
2018-08-04T16:39:52.155Z,31.30
2018-08-04T16:42:20.580Z,31.50
2018-08-04T16:44:49.819Z,31.70
2018-08-04T16:47:18.397Z,31.90
2018-08-04T16:49:48.047Z,31.90
2018-08-04T16:52:16.312Z,31.80
2018-08-04T16:54:45.108Z,31.90
2018-08-04T16:57:14.111Z,31.90
2018-08-04T16:59:42.332Z,31.70
2018-08-04T17:02:10.533Z,31.80
2018-08-04T17:04:38.896Z,32.00
2018-08-04T17:07:07.170Z,32.20
2018-08-04T17:09:36.021Z,32.20
2018-08-04T17:12:04.377Z,31.90
2018-08-04T17:14:33.519Z,31.80
2018-08-04T17:17:01.703Z,32.00
2018-08-04T17:19:29.931Z,32.00
2018-08-04T17:21:58.217Z,32.20
2018-08-04T17:24:26.456Z,32.40
2018-08-04T17:26:54.705Z,32.70
2018-08-04T17:29:23.647Z,33.00
2018-08-04T17:31:52.085Z,33.10
2018-08-04T17:34:20.356Z,33.20
2018-08-04T17:36:48.629Z,33.30
2018-08-04T17:39:16.872Z,33.50
2018-08-04T17:41:45.904Z,33.70
2018-08-04T17:44:14.095Z,34.00
2018-08-04T17:46:42.349Z,34.30
2018-08-04T17:49:10.727Z,34.50
2018-08-04T17:51:39.009Z,34.70
2018-08-04T17:54:07.347Z,34.80
2018-08-04T17:56:36.197Z,34.60
2018-08-04T17:59:04.464Z,34.50
2018-08-04T18:01:32.771Z,34.10
2018-08-04T18:04:01.148Z,33.80
2018-08-04T18:06:29.320Z,33.60
2018-08-04T18:08:58.098Z,33.50
2018-08-04T18:11:26.363Z,33.70
2018-08-04T18:13:54.579Z,33.80
2018-08-04T18:16:22.803Z,34.70
2018-08-04T18:18:51.137Z,34.30
2018-08-04T18:21:19.322Z,34.70
2018-08-04T18:23:47.546Z,35.80
2018-08-04T18:26:15.785Z,36.10
2018-08-04T18:28:44.019Z,37.00
2018-08-04T18:31:12.377Z,37.90
2018-08-04T18:33:40.591Z,39.20
2018-08-04T18:36:08.824Z,41.40
2018-08-04T18:38:37.045Z,43.10
2018-08-04T18:41:05.321Z,44.60
2018-08-04T18:43:33.588Z,45.70
2018-08-04T18:46:01.832Z,46.40
2018-08-04T18:48:30.035Z,47.60
2018-08-04T18:50:58.258Z,48.60
2018-08-04T18:53:26.463Z,49.30
2018-08-04T18:55:54.845Z,49.80
2018-08-04T18:58:23.084Z,50.80
2018-08-04T19:00:51.275Z,51.80
2018-08-04T19:03:19.501Z,52.60
2018-08-04T19:05:47.757Z,53.00
2018-08-04T19:08:15.969Z,53.20
2018-08-04T19:10:44.212Z,54.40
2018-08-04T19:13:12.451Z,55.30
2018-08-04T19:15:40.672Z,55.60
2018-08-04T19:18:08.926Z,56.40
2018-08-04T19:20:37.148Z,57.00
2018-08-04T19:23:05.451Z,56.60
2018-08-04T19:25:33.657Z,56.60
2018-08-04T19:28:01.952Z,57.20
2018-08-04T19:30:30.149Z,58.10
2018-08-04T19:32:58.398Z,58.70
2018-08-04T19:35:26.693Z,59.10
2018-08-04T19:37:54.913Z,60.20
2018-08-04T19:40:23.185Z,60.70
2018-08-04T19:42:51.364Z,62.30
2018-08-04T19:47:47.560Z,62.80
2018-08-04T19:50:15.788Z,63.50
2018-08-04T19:52:44.010Z,64.40
2018-08-04T19:55:12.233Z,65.10
2018-08-04T19:57:40.497Z,65.70
2018-08-04T20:00:08.745Z,66.20
2018-08-04T20:02:36.992Z,66.80
2018-08-04T20:05:05.551Z,67.50
2018-08-04T20:07:33.823Z,68.50
2018-08-04T20:10:02.067Z,69.30
2018-08-04T20:12:30.292Z,69.90
2018-08-04T20:14:58.535Z,70.30
2018-08-04T20:17:26.794Z,70.60
2018-08-04T20:19:55.011Z,70.90
2018-08-04T20:22:23.242Z,71.70
2018-08-04T20:24:51.452Z,71.70
2018-08-04T20:27:19.699Z,71.20
2018-08-04T20:29:48.070Z,71.20
2018-08-04T20:32:16.321Z,71.60
2018-08-04T20:34:44.544Z,72.20
2018-08-04T20:37:13.791Z,72.50
2018-08-04T20:39:42.144Z,72.90
2018-08-04T20:42:10.379Z,73.40
2018-08-04T20:44:38.772Z,73.80
2018-08-04T20:47:06.975Z,74.20
2018-08-04T20:49:35.206Z,74.90
2018-08-04T20:52:03.467Z,75.40
2018-08-04T20:54:31.668Z,75.80
2018-08-04T20:56:59.895Z,76.30
2018-08-04T20:59:28.152Z,76.70
2018-08-04T21:02:01.705Z,77.30
2018-08-04T21:04:31.352Z,77.90
2018-08-04T21:06:59.937Z,78.20
2018-08-04T21:09:28.209Z,78.30
2018-08-04T21:11:56.795Z,78.50
2018-08-04T21:14:26.029Z,78.70
2018-08-04T21:16:55.209Z,78.90
2018-08-04T21:19:24.108Z,79.10
2018-08-04T21:21:52.320Z,79.40
2018-08-04T21:24:22.677Z,79.60
2018-08-04T21:26:51.764Z,79.90
2018-08-04T21:29:20.272Z,80.40
2018-08-04T21:31:48.569Z,80.60
2018-08-04T21:34:16.777Z,80.60
2018-08-04T21:36:45.027Z,80.30
2018-08-04T21:39:18.504Z,80.20
2018-08-04T21:41:47.101Z,80.10
2018-08-04T21:44:15.446Z,80.30
2018-08-04T21:46:47.453Z,80.80
2018-08-04T21:49:15.817Z,81.20
2018-08-04T21:51:47.070Z,80.90
2018-08-04T21:54:19.917Z,80.70
2018-08-04T21:56:44.823Z,80.30
2018-08-04T21:59:13.124Z,80.10
2018-08-04T22:04:13.645Z,80.80
2018-08-04T22:06:52.156Z,81.20
2018-08-04T22:09:23.378Z,80.50
2018-08-04T22:11:51.587Z,80.50
2018-08-04T22:14:19.772Z,80.80
2018-08-04T22:16:48.064Z,81.00
2018-08-04T22:19:16.306Z,81.10
2018-08-04T22:21:44.526Z,81.40
2018-08-04T22:24:12.735Z,81.90
2018-08-04T22:26:40.992Z,82.00
2018-08-04T22:29:09.255Z,82.20
2018-08-04T22:31:37.620Z,82.40
2018-08-04T22:34:06.008Z,82.30
2018-08-04T22:36:34.301Z,82.80
2018-08-04T22:39:02.511Z,82.80
2018-08-04T22:41:30.758Z,82.70
2018-08-04T22:43:58.993Z,83.00
2018-08-04T22:46:27.224Z,83.50
2018-08-04T22:48:55.551Z,83.70
2018-08-04T22:51:29.621Z,83.40
2018-08-04T22:53:57.852Z,83.30
2018-08-04T22:56:26.381Z,83.30
2018-08-04T22:58:54.631Z,83.50
2018-08-04T23:01:22.912Z,83.00
2018-08-04T23:03:51.168Z,83.10
2018-08-04T23:06:19.421Z,83.10
2018-08-04T23:08:47.616Z,83.20
2018-08-04T23:11:15.872Z,83.50
2018-08-04T23:13:44.090Z,83.80
2018-08-04T23:16:12.287Z,83.90
2018-08-04T23:18:40.485Z,83.80
2018-08-04T23:21:08.706Z,84.10
2018-08-04T23:23:37.515Z,84.40
2018-08-04T23:26:05.899Z,84.40
2018-08-04T23:28:34.121Z,84.70
2018-08-04T23:31:02.365Z,84.80
2018-08-04T23:33:30.606Z,84.90
2018-08-04T23:35:58.865Z,84.90
2018-08-04T23:38:27.061Z,84.90
2018-08-04T23:40:55.433Z,84.90
2018-08-04T23:43:23.662Z,85.00
2018-08-04T23:45:51.879Z,85.00
2018-08-04T23:48:20.096Z,84.90
2018-08-04T23:50:48.361Z,84.90
2018-08-04T23:53:16.542Z,85.00
2018-08-04T23:55:44.870Z,84.70
2018-08-04T23:58:13.046Z,84.40
